sensor_id;sensor_type;location;lat;lon;timestamp;P1;durP1;ratioP1;P2;durP2;ratioP2
21480;SDS011;10902;48.158;8.634;2022-10-16T00:00:40;4.80;;;2.10;;
21480;SDS011;10902;48.158;8.634;2022-10-16T00:03:07;5.13;;;2.10;;
21480;SDS011;10902;48.158;8.634;2022-10-16T00:05:33;5.97;;;2.30;;
21480;SDS011;10902;48.158;8.634;2022-10-16T00:08:03;4.85;;;2.03;;
21480;SDS011;10902;48.158;8.634;2022-10-16T00:10:29;5.10;;;2.03;;
21480;SDS011;10902;48.158;8.634;2022-10-16T00:12:54;5.82;;;2.22;;
21480;SDS011;10902;48.158;8.634;2022-10-16T00:15:20;5.10;;;2.00;;
21480;SDS011;10902;48.158;8.634;2022-10-16T00:17:45;4.82;;;1.98;;
21480;SDS011;10902;48.158;8.634;2022-10-16T00:20:11;4.07;;;1.70;;
21480;SDS011;10902;48.158;8.634;2022-10-16T00:22:37;5.10;;;1.80;;
21480;SDS011;10902;48.158;8.634;2022-10-16T00:25:02;5.85;;;1.90;;
21480;SDS011;10902;48.158;8.634;2022-10-16T00:27:28;7.07;;;2.08;;
21480;SDS011;10902;48.158;8.634;2022-10-16T00:29:54;4.47;;;1.98;;
21480;SDS011;10902;48.158;8.634;2022-10-16T00:32:19;4.93;;;1.83;;
21480;SDS011;10902;48.158;8.634;2022-10-16T00:34:45;4.88;;;1.90;;
21480;SDS011;10902;48.158;8.634;2022-10-16T00:37:11;4.75;;;1.73;;
21480;SDS011;10902;48.158;8.634;2022-10-16T00:39:37;6.13;;;2.03;;
21480;SDS011;10902;48.158;8.634;2022-10-16T00:42:03;4.45;;;1.95;;
21480;SDS011;10902;48.158;8.634;2022-10-16T00:47:26;5.50;;;1.70;;
21480;SDS011;10902;48.158;8.634;2022-10-16T00:50:08;4.70;;;1.77;;
21480;SDS011;10902;48.158;8.634;2022-10-16T00:52:47;3.83;;;1.70;;
21480;SDS011;10902;48.158;8.634;2022-10-16T00:55:14;5.07;;;1.95;;
21480;SDS011;10902;48.158;8.634;2022-10-16T00:57:41;4.25;;;1.98;;
21480;SDS011;10902;48.158;8.634;2022-10-16T01:00:08;3.70;;;1.42;;
21480;SDS011;10902;48.158;8.634;2022-10-16T01:02:37;4.50;;;1.70;;
21480;SDS011;10902;48.158;8.634;2022-10-16T01:05:03;6.40;;;2.30;;
21480;SDS011;10902;48.158;8.634;2022-10-16T01:12:58;4.97;;;1.50;;
21480;SDS011;10902;48.158;8.634;2022-10-16T01:15:29;5.40;;;2.00;;
21480;SDS011;10902;48.158;8.634;2022-10-16T01:20:42;6.35;;;1.70;;
21480;SDS011;10902;48.158;8.634;2022-10-16T01:28:36;5.10;;;1.83;;
21480;SDS011;10902;48.158;8.634;2022-10-16T01:31:13;4.80;;;1.90;;
21480;SDS011;10902;48.158;8.634;2022-10-16T01:33:44;3.63;;;1.63;;
21480;SDS011;10902;48.158;8.634;2022-10-16T01:36:16;5.15;;;1.63;;
21480;SDS011;10902;48.158;8.634;2022-10-16T01:38:51;5.03;;;2.15;;
21480;SDS011;10902;48.158;8.634;2022-10-16T01:41:21;10.88;;;2.70;;
21480;SDS011;10902;48.158;8.634;2022-10-16T01:43:53;11.85;;;2.35;;
21480;SDS011;10902;48.158;8.634;2022-10-16T01:46:26;5.57;;;1.83;;
21480;SDS011;10902;48.158;8.634;2022-10-16T01:48:53;4.78;;;2.08;;
21480;SDS011;10902;48.158;8.634;2022-10-16T01:51:20;5.20;;;1.80;;
21480;SDS011;10902;48.158;8.634;2022-10-16T01:53:48;5.03;;;1.83;;
21480;SDS011;10902;48.158;8.634;2022-10-16T01:56:17;5.80;;;2.30;;
21480;SDS011;10902;48.158;8.634;2022-10-16T01:58:46;5.72;;;1.98;;
21480;SDS011;10902;48.158;8.634;2022-10-16T02:01:29;3.95;;;1.75;;
21480;SDS011;10902;48.158;8.634;2022-10-16T02:03:59;6.43;;;1.83;;
21480;SDS011;10902;48.158;8.634;2022-10-16T02:06:29;6.57;;;2.00;;
21480;SDS011;10902;48.158;8.634;2022-10-16T02:08:56;5.15;;;2.03;;
21480;SDS011;10902;48.158;8.634;2022-10-16T02:11:22;4.75;;;2.17;;
21480;SDS011;10902;48.158;8.634;2022-10-16T02:13:58;6.80;;;1.98;;
21480;SDS011;10902;48.158;8.634;2022-10-16T02:16:34;5.72;;;1.60;;
21480;SDS011;10902;48.158;8.634;2022-10-16T02:19:02;4.45;;;1.70;;
21480;SDS011;10902;48.158;8.634;2022-10-16T02:21:29;5.88;;;1.88;;
21480;SDS011;10902;48.158;8.634;2022-10-16T02:26:51;4.70;;;1.45;;
21480;SDS011;10902;48.158;8.634;2022-10-16T02:29:25;4.78;;;1.48;;
21480;SDS011;10902;48.158;8.634;2022-10-16T02:32:01;4.07;;;1.63;;
21480;SDS011;10902;48.158;8.634;2022-10-16T02:34:29;4.20;;;1.48;;
21480;SDS011;10902;48.158;8.634;2022-10-16T02:36:56;5.78;;;1.48;;
21480;SDS011;10902;48.158;8.634;2022-10-16T02:39:24;4.95;;;1.40;;
21480;SDS011;10902;48.158;8.634;2022-10-16T02:41:53;5.57;;;1.75;;
21480;SDS011;10902;48.158;8.634;2022-10-16T02:44:18;4.63;;;1.50;;
21480;SDS011;10902;48.158;8.634;2022-10-16T02:46:44;5.20;;;1.52;;
21480;SDS011;10902;48.158;8.634;2022-10-16T02:49:09;6.18;;;1.73;;
21480;SDS011;10902;48.158;8.634;2022-10-16T02:51:35;4.43;;;1.55;;
21480;SDS011;10902;48.158;8.634;2022-10-16T02:54:01;4.70;;;1.48;;
21480;SDS011;10902;48.158;8.634;2022-10-16T02:56:27;7.55;;;1.60;;
21480;SDS011;10902;48.158;8.634;2022-10-16T02:58:54;6.25;;;1.70;;
21480;SDS011;10902;48.158;8.634;2022-10-16T03:01:20;5.45;;;1.70;;
21480;SDS011;10902;48.158;8.634;2022-10-16T03:03:46;5.53;;;1.70;;
21480;SDS011;10902;48.158;8.634;2022-10-16T03:06:11;5.43;;;1.92;;
21480;SDS011;10902;48.158;8.634;2022-10-16T03:08:37;6.78;;;1.77;;
21480;SDS011;10902;48.158;8.634;2022-10-16T03:11:02;5.05;;;1.80;;
21480;SDS011;10902;48.158;8.634;2022-10-16T03:13:28;5.25;;;2.00;;
21480;SDS011;10902;48.158;8.634;2022-10-16T03:15:53;4.78;;;1.70;;
21480;SDS011;10902;48.158;8.634;2022-10-16T03:18:19;5.35;;;1.80;;
21480;SDS011;10902;48.158;8.634;2022-10-16T03:20:44;4.40;;;1.80;;
21480;SDS011;10902;48.158;8.634;2022-10-16T03:23:10;4.88;;;2.00;;
21480;SDS011;10902;48.158;8.634;2022-10-16T03:25:36;4.32;;;1.95;;
21480;SDS011;10902;48.158;8.634;2022-10-16T03:28:02;5.75;;;1.70;;
21480;SDS011;10902;48.158;8.634;2022-10-16T03:30:28;3.63;;;1.80;;
21480;SDS011;10902;48.158;8.634;2022-10-16T03:32:53;4.30;;;2.20;;
21480;SDS011;10902;48.158;8.634;2022-10-16T03:35:23;5.15;;;1.80;;
21480;SDS011;10902;48.158;8.634;2022-10-16T03:37:49;4.20;;;1.90;;
21480;SDS011;10902;48.158;8.634;2022-10-16T03:40:15;4.18;;;1.83;;
21480;SDS011;10902;48.158;8.634;2022-10-16T03:42:44;4.97;;;1.90;;
21480;SDS011;10902;48.158;8.634;2022-10-16T03:45:10;5.32;;;1.90;;
21480;SDS011;10902;48.158;8.634;2022-10-16T03:47:36;5.60;;;1.70;;
21480;SDS011;10902;48.158;8.634;2022-10-16T03:50:02;3.75;;;1.80;;
21480;SDS011;10902;48.158;8.634;2022-10-16T03:52:29;4.50;;;1.90;;
21480;SDS011;10902;48.158;8.634;2022-10-16T03:54:54;5.13;;;1.80;;
21480;SDS011;10902;48.158;8.634;2022-10-16T03:57:20;3.92;;;1.90;;
21480;SDS011;10902;48.158;8.634;2022-10-16T03:59:46;4.28;;;1.70;;
21480;SDS011;10902;48.158;8.634;2022-10-16T04:02:12;8.02;;;1.80;;
21480;SDS011;10902;48.158;8.634;2022-10-16T04:04:37;5.63;;;2.00;;
21480;SDS011;10902;48.158;8.634;2022-10-16T04:07:03;5.25;;;2.03;;
21480;SDS011;10902;48.158;8.634;2022-10-16T04:09:29;5.78;;;1.90;;
21480;SDS011;10902;48.158;8.634;2022-10-16T04:11:54;3.90;;;2.00;;
21480;SDS011;10902;48.158;8.634;2022-10-16T04:14:20;5.53;;;2.15;;
21480;SDS011;10902;48.158;8.634;2022-10-16T04:16:45;5.40;;;2.20;;
21480;SDS011;10902;48.158;8.634;2022-10-16T04:19:11;6.47;;;2.05;;
21480;SDS011;10902;48.158;8.634;2022-10-16T04:21:37;3.95;;;1.38;;
21480;SDS011;10902;48.158;8.634;2022-10-16T04:24:02;5.03;;;1.90;;
21480;SDS011;10902;48.158;8.634;2022-10-16T04:26:28;4.95;;;1.83;;
21480;SDS011;10902;48.158;8.634;2022-10-16T04:28:54;5.78;;;1.98;;
21480;SDS011;10902;48.158;8.634;2022-10-16T04:31:20;6.05;;;1.80;;
21480;SDS011;10902;48.158;8.634;2022-10-16T04:33:45;5.18;;;2.00;;
21480;SDS011;10902;48.158;8.634;2022-10-16T04:36:11;3.97;;;1.92;;
21480;SDS011;10902;48.158;8.634;2022-10-16T04:38:37;4.78;;;1.90;;
21480;SDS011;10902;48.158;8.634;2022-10-16T04:41:04;4.57;;;1.60;;
21480;SDS011;10902;48.158;8.634;2022-10-16T04:43:30;4.90;;;1.77;;
21480;SDS011;10902;48.158;8.634;2022-10-16T04:45:56;5.07;;;1.88;;
21480;SDS011;10902;48.158;8.634;2022-10-16T04:48:22;6.03;;;1.75;;
21480;SDS011;10902;48.158;8.634;2022-10-16T04:50:47;5.32;;;1.92;;
21480;SDS011;10902;48.158;8.634;2022-10-16T04:53:13;4.40;;;2.10;;
21480;SDS011;10902;48.158;8.634;2022-10-16T04:55:39;4.65;;;1.80;;
21480;SDS011;10902;48.158;8.634;2022-10-16T04:58:06;3.95;;;2.00;;
21480;SDS011;10902;48.158;8.634;2022-10-16T05:00:32;4.88;;;1.70;;
21480;SDS011;10902;48.158;8.634;2022-10-16T05:02:57;4.60;;;1.80;;
21480;SDS011;10902;48.158;8.634;2022-10-16T05:05:25;5.45;;;1.60;;
21480;SDS011;10902;48.158;8.634;2022-10-16T05:07:51;5.57;;;2.00;;
21480;SDS011;10902;48.158;8.634;2022-10-16T05:10:17;5.22;;;1.83;;
21480;SDS011;10902;48.158;8.634;2022-10-16T05:12:42;5.65;;;1.85;;
21480;SDS011;10902;48.158;8.634;2022-10-16T05:15:08;6.70;;;1.77;;
21480;SDS011;10902;48.158;8.634;2022-10-16T05:17:34;3.50;;;1.70;;
21480;SDS011;10902;48.158;8.634;2022-10-16T05:20:00;5.22;;;1.60;;
21480;SDS011;10902;48.158;8.634;2022-10-16T05:22:25;6.18;;;1.80;;
21480;SDS011;10902;48.158;8.634;2022-10-16T05:24:51;9.82;;;2.03;;
21480;SDS011;10902;48.158;8.634;2022-10-16T05:27:16;3.60;;;1.40;;
21480;SDS011;10902;48.158;8.634;2022-10-16T05:29:46;4.13;;;1.38;;
21480;SDS011;10902;48.158;8.634;2022-10-16T05:32:12;3.83;;;1.50;;
21480;SDS011;10902;48.158;8.634;2022-10-16T05:34:39;4.75;;;1.65;;
21480;SDS011;10902;48.158;8.634;2022-10-16T05:37:04;6.28;;;2.03;;
21480;SDS011;10902;48.158;8.634;2022-10-16T05:39:30;5.00;;;1.70;;
21480;SDS011;10902;48.158;8.634;2022-10-16T05:41:56;4.05;;;1.45;;
21480;SDS011;10902;48.158;8.634;2022-10-16T05:44:21;5.47;;;1.80;;
21480;SDS011;10902;48.158;8.634;2022-10-16T05:46:47;4.60;;;1.75;;
21480;SDS011;10902;48.158;8.634;2022-10-16T05:49:12;6.70;;;1.60;;
21480;SDS011;10902;48.158;8.634;2022-10-16T05:51:38;3.97;;;1.70;;
21480;SDS011;10902;48.158;8.634;2022-10-16T05:54:04;4.70;;;1.70;;
21480;SDS011;10902;48.158;8.634;2022-10-16T05:56:30;3.65;;;1.48;;
21480;SDS011;10902;48.158;8.634;2022-10-16T05:58:55;4.47;;;1.42;;
21480;SDS011;10902;48.158;8.634;2022-10-16T06:01:21;6.15;;;1.70;;
21480;SDS011;10902;48.158;8.634;2022-10-16T06:03:49;3.95;;;1.45;;
21480;SDS011;10902;48.158;8.634;2022-10-16T06:06:16;3.22;;;1.50;;
21480;SDS011;10902;48.158;8.634;2022-10-16T06:08:44;4.90;;;1.83;;
21480;SDS011;10902;48.158;8.634;2022-10-16T06:11:11;7.05;;;2.00;;
21480;SDS011;10902;48.158;8.634;2022-10-16T06:13:39;4.55;;;1.80;;
21480;SDS011;10902;48.158;8.634;2022-10-16T06:16:07;5.60;;;1.90;;
21480;SDS011;10902;48.158;8.634;2022-10-16T06:18:33;4.20;;;2.00;;
21480;SDS011;10902;48.158;8.634;2022-10-16T06:20:59;5.05;;;2.20;;
21480;SDS011;10902;48.158;8.634;2022-10-16T06:23:24;6.00;;;2.40;;
21480;SDS011;10902;48.158;8.634;2022-10-16T06:25:50;7.30;;;2.20;;
21480;SDS011;10902;48.158;8.634;2022-10-16T06:28:16;5.20;;;1.88;;
21480;SDS011;10902;48.158;8.634;2022-10-16T06:30:42;4.55;;;1.60;;
21480;SDS011;10902;48.158;8.634;2022-10-16T06:33:09;4.68;;;1.58;;
21480;SDS011;10902;48.158;8.634;2022-10-16T06:35:37;6.00;;;1.83;;
21480;SDS011;10902;48.158;8.634;2022-10-16T06:38:03;3.83;;;1.58;;
21480;SDS011;10902;48.158;8.634;2022-10-16T06:40:28;5.70;;;1.70;;
21480;SDS011;10902;48.158;8.634;2022-10-16T06:42:54;3.75;;;1.60;;
21480;SDS011;10902;48.158;8.634;2022-10-16T06:45:20;4.82;;;1.60;;
21480;SDS011;10902;48.158;8.634;2022-10-16T06:47:46;4.35;;;1.98;;
21480;SDS011;10902;48.158;8.634;2022-10-16T06:50:11;7.03;;;2.22;;
21480;SDS011;10902;48.158;8.634;2022-10-16T06:52:37;4.75;;;1.92;;
21480;SDS011;10902;48.158;8.634;2022-10-16T06:55:02;5.78;;;1.70;;
21480;SDS011;10902;48.158;8.634;2022-10-16T06:57:28;5.68;;;2.10;;
21480;SDS011;10902;48.158;8.634;2022-10-16T06:59:54;5.38;;;2.00;;
21480;SDS011;10902;48.158;8.634;2022-10-16T07:02:19;5.43;;;1.98;;
21480;SDS011;10902;48.158;8.634;2022-10-16T07:04:45;3.90;;;1.77;;
21480;SDS011;10902;48.158;8.634;2022-10-16T07:07:10;6.32;;;1.80;;
21480;SDS011;10902;48.158;8.634;2022-10-16T07:09:36;5.20;;;1.63;;
21480;SDS011;10902;48.158;8.634;2022-10-16T07:12:02;7.13;;;2.05;;
21480;SDS011;10902;48.158;8.634;2022-10-16T07:14:27;6.03;;;1.60;;
21480;SDS011;10902;48.158;8.634;2022-10-16T07:16:54;4.88;;;2.00;;
21480;SDS011;10902;48.158;8.634;2022-10-16T07:19:20;5.47;;;1.85;;
21480;SDS011;10902;48.158;8.634;2022-10-16T07:21:46;3.95;;;1.40;;
21480;SDS011;10902;48.158;8.634;2022-10-16T07:24:12;6.20;;;1.60;;
21480;SDS011;10902;48.158;8.634;2022-10-16T07:26:40;5.40;;;1.48;;
21480;SDS011;10902;48.158;8.634;2022-10-16T07:29:09;4.88;;;1.38;;
21480;SDS011;10902;48.158;8.634;2022-10-16T07:31:38;7.15;;;1.55;;
21480;SDS011;10902;48.158;8.634;2022-10-16T07:34:04;4.03;;;1.67;;
21480;SDS011;10902;48.158;8.634;2022-10-16T07:36:29;4.90;;;1.25;;
21480;SDS011;10902;48.158;8.634;2022-10-16T07:38:55;4.57;;;1.40;;
21480;SDS011;10902;48.158;8.634;2022-10-16T07:41:20;4.05;;;1.63;;
21480;SDS011;10902;48.158;8.634;2022-10-16T07:43:47;4.38;;;1.40;;
21480;SDS011;10902;48.158;8.634;2022-10-16T07:46:14;3.47;;;1.38;;
21480;SDS011;10902;48.158;8.634;2022-10-16T07:48:40;4.75;;;1.60;;
21480;SDS011;10902;48.158;8.634;2022-10-16T07:51:06;4.57;;;1.20;;
21480;SDS011;10902;48.158;8.634;2022-10-16T07:53:32;4.55;;;1.60;;
21480;SDS011;10902;48.158;8.634;2022-10-16T07:55:59;4.60;;;1.27;;
21480;SDS011;10902;48.158;8.634;2022-10-16T07:58:25;12.95;;;1.50;;
21480;SDS011;10902;48.158;8.634;2022-10-16T08:00:52;5.07;;;1.25;;
21480;SDS011;10902;48.158;8.634;2022-10-16T08:03:18;3.58;;;1.33;;
21480;SDS011;10902;48.158;8.634;2022-10-16T08:05:43;3.60;;;1.60;;
21480;SDS011;10902;48.158;8.634;2022-10-16T08:08:16;5.75;;;2.00;;
21480;SDS011;10902;48.158;8.634;2022-10-16T08:10:42;7.28;;;1.60;;
21480;SDS011;10902;48.158;8.634;2022-10-16T08:13:08;4.82;;;1.70;;
21480;SDS011;10902;48.158;8.634;2022-10-16T08:15:34;6.38;;;1.80;;
21480;SDS011;10902;48.158;8.634;2022-10-16T08:18:00;4.93;;;1.70;;
21480;SDS011;10902;48.158;8.634;2022-10-16T08:20:27;3.90;;;1.45;;
21480;SDS011;10902;48.158;8.634;2022-10-16T08:22:54;5.82;;;1.70;;
21480;SDS011;10902;48.158;8.634;2022-10-16T08:25:21;4.15;;;1.25;;
21480;SDS011;10902;48.158;8.634;2022-10-16T08:27:47;4.70;;;1.80;;
21480;SDS011;10902;48.158;8.634;2022-10-16T08:30:14;4.05;;;1.45;;
21480;SDS011;10902;48.158;8.634;2022-10-16T08:32:40;3.42;;;1.48;;
21480;SDS011;10902;48.158;8.634;2022-10-16T08:35:07;4.22;;;1.40;;
21480;SDS011;10902;48.158;8.634;2022-10-16T08:37:34;4.25;;;1.50;;
21480;SDS011;10902;48.158;8.634;2022-10-16T08:40:00;3.75;;;1.58;;
21480;SDS011;10902;48.158;8.634;2022-10-16T08:47:50;5.57;;;1.50;;
21480;SDS011;10902;48.158;8.634;2022-10-16T08:50:36;4.20;;;1.20;;
21480;SDS011;10902;48.158;8.634;2022-10-16T08:53:03;3.45;;;1.38;;
21480;SDS011;10902;48.158;8.634;2022-10-16T08:55:48;5.93;;;1.85;;
21480;SDS011;10902;48.158;8.634;2022-10-16T08:58:17;4.07;;;1.65;;
21480;SDS011;10902;48.158;8.634;2022-10-16T09:00:45;4.72;;;1.45;;
21480;SDS011;10902;48.158;8.634;2022-10-16T09:03:17;6.40;;;1.58;;
21480;SDS011;10902;48.158;8.634;2022-10-16T09:06:15;6.07;;;1.63;;
21480;SDS011;10902;48.158;8.634;2022-10-16T09:11:43;4.85;;;1.55;;
21480;SDS011;10902;48.158;8.634;2022-10-16T09:17:20;4.45;;;1.45;;
21480;SDS011;10902;48.158;8.634;2022-10-16T09:22:34;5.05;;;1.40;;
21480;SDS011;10902;48.158;8.634;2022-10-16T09:25:00;3.08;;;1.20;;
21480;SDS011;10902;48.158;8.634;2022-10-16T09:27:37;6.95;;;1.40;;
21480;SDS011;10902;48.158;8.634;2022-10-16T09:30:10;3.35;;;1.25;;
21480;SDS011;10902;48.158;8.634;2022-10-16T09:32:41;6.28;;;1.17;;
21480;SDS011;10902;48.158;8.634;2022-10-16T09:35:19;3.10;;;1.20;;
21480;SDS011;10902;48.158;8.634;2022-10-16T09:37:48;3.08;;;1.27;;
21480;SDS011;10902;48.158;8.634;2022-10-16T09:45:43;4.82;;;1.40;;
21480;SDS011;10902;48.158;8.634;2022-10-16T09:48:17;6.95;;;1.38;;
21480;SDS011;10902;48.158;8.634;2022-10-16T09:50:54;4.80;;;1.58;;
21480;SDS011;10902;48.158;8.634;2022-10-16T09:53:38;4.03;;;1.55;;
21480;SDS011;10902;48.158;8.634;2022-10-16T09:56:09;3.72;;;1.45;;
21480;SDS011;10902;48.158;8.634;2022-10-16T09:58:54;3.78;;;1.33;;
21480;SDS011;10902;48.158;8.634;2022-10-16T10:01:22;3.70;;;1.30;;
21480;SDS011;10902;48.158;8.634;2022-10-16T10:04:09;3.47;;;1.55;;
21480;SDS011;10902;48.158;8.634;2022-10-16T10:06:45;5.30;;;1.25;;
21480;SDS011;10902;48.158;8.634;2022-10-16T10:09:23;5.18;;;1.33;;
21480;SDS011;10902;48.158;8.634;2022-10-16T10:11:51;5.20;;;1.40;;
21480;SDS011;10902;48.158;8.634;2022-10-16T10:14:29;6.43;;;1.60;;
21480;SDS011;10902;48.158;8.634;2022-10-16T10:19:29;3.90;;;1.98;;
21480;SDS011;10902;48.158;8.634;2022-10-16T10:22:12;4.38;;;1.15;;
21480;SDS011;10902;48.158;8.634;2022-10-16T10:24:42;4.00;;;1.40;;
21480;SDS011;10902;48.158;8.634;2022-10-16T10:27:11;4.75;;;1.55;;
21480;SDS011;10902;48.158;8.634;2022-10-16T10:29:51;4.75;;;1.50;;
21480;SDS011;10902;48.158;8.634;2022-10-16T10:41:04;5.38;;;1.30;;
21480;SDS011;10902;48.158;8.634;2022-10-16T10:45:44;3.13;;;1.10;;
21480;SDS011;10902;48.158;8.634;2022-10-16T10:53:44;5.53;;;1.60;;
21480;SDS011;10902;48.158;8.634;2022-10-16T10:56:41;4.18;;;1.40;;
21480;SDS011;10902;48.158;8.634;2022-10-16T11:04:49;4.72;;;1.73;;
21480;SDS011;10902;48.158;8.634;2022-10-16T11:16:22;3.97;;;1.95;;
21480;SDS011;10902;48.158;8.634;2022-10-16T11:18:58;6.97;;;1.67;;
21480;SDS011;10902;48.158;8.634;2022-10-16T11:21:59;7.78;;;1.73;;
21480;SDS011;10902;48.158;8.634;2022-10-16T11:24:33;3.55;;;1.50;;
21480;SDS011;10902;48.158;8.634;2022-10-16T11:27:11;5.13;;;1.20;;
21480;SDS011;10902;48.158;8.634;2022-10-16T11:29:47;3.30;;;1.17;;
21480;SDS011;10902;48.158;8.634;2022-10-16T11:32:22;5.03;;;1.40;;
21480;SDS011;10902;48.158;8.634;2022-10-16T11:34:55;4.68;;;1.20;;
21480;SDS011;10902;48.158;8.634;2022-10-16T11:37:27;3.22;;;1.30;;
21480;SDS011;10902;48.158;8.634;2022-10-16T11:40:00;2.90;;;1.00;;
21480;SDS011;10902;48.158;8.634;2022-10-16T11:42:40;3.70;;;1.05;;
21480;SDS011;10902;48.158;8.634;2022-10-16T11:45:26;4.93;;;1.50;;
21480;SDS011;10902;48.158;8.634;2022-10-16T11:50:48;3.00;;;0.90;;
21480;SDS011;10902;48.158;8.634;2022-10-16T11:53:23;4.75;;;1.40;;
21480;SDS011;10902;48.158;8.634;2022-10-16T11:55:53;4.80;;;1.30;;
21480;SDS011;10902;48.158;8.634;2022-10-16T11:58:22;4.25;;;1.20;;
21480;SDS011;10902;48.158;8.634;2022-10-16T12:03:41;3.63;;;1.40;;
21480;SDS011;10902;48.158;8.634;2022-10-16T12:06:25;4.57;;;1.40;;
21480;SDS011;10902;48.158;8.634;2022-10-16T12:08:53;3.60;;;1.50;;
21480;SDS011;10902;48.158;8.634;2022-10-16T12:11:24;4.25;;;1.52;;
21480;SDS011;10902;48.158;8.634;2022-10-16T12:14:16;7.82;;;1.25;;
21480;SDS011;10902;48.158;8.634;2022-10-16T12:19:21;2.45;;;1.00;;
21480;SDS011;10902;48.158;8.634;2022-10-16T12:21:48;3.47;;;1.15;;
21480;SDS011;10902;48.158;8.634;2022-10-16T12:26:47;5.97;;;1.38;;
21480;SDS011;10902;48.158;8.634;2022-10-16T12:34:54;2.85;;;1.00;;
21480;SDS011;10902;48.158;8.634;2022-10-16T12:39:50;3.15;;;1.00;;
21480;SDS011;10902;48.158;8.634;2022-10-16T12:42:19;4.70;;;1.20;;
21480;SDS011;10902;48.158;8.634;2022-10-16T12:44:56;2.85;;;1.00;;
21480;SDS011;10902;48.158;8.634;2022-10-16T12:47:23;3.58;;;0.88;;
21480;SDS011;10902;48.158;8.634;2022-10-16T12:50:00;3.20;;;1.00;;
21480;SDS011;10902;48.158;8.634;2022-10-16T12:52:39;3.28;;;0.90;;
21480;SDS011;10902;48.158;8.634;2022-10-16T12:55:05;2.53;;;1.00;;
21480;SDS011;10902;48.158;8.634;2022-10-16T13:08:43;3.80;;;1.00;;
21480;SDS011;10902;48.158;8.634;2022-10-16T13:24:46;5.97;;;1.10;;
21480;SDS011;10902;48.158;8.634;2022-10-16T13:27:23;4.28;;;1.10;;
21480;SDS011;10902;48.158;8.634;2022-10-16T13:30:12;4.40;;;1.20;;
21480;SDS011;10902;48.158;8.634;2022-10-16T13:33:02;3.90;;;1.33;;
21480;SDS011;10902;48.158;8.634;2022-10-16T13:35:32;4.05;;;1.23;;
21480;SDS011;10902;48.158;8.634;2022-10-16T13:38:13;2.53;;;1.10;;
21480;SDS011;10902;48.158;8.634;2022-10-16T13:43:41;3.78;;;1.08;;
21480;SDS011;10902;48.158;8.634;2022-10-16T13:46:14;4.22;;;1.20;;
21480;SDS011;10902;48.158;8.634;2022-10-16T13:48:42;4.15;;;1.10;;
21480;SDS011;10902;48.158;8.634;2022-10-16T13:51:15;4.05;;;1.35;;
21480;SDS011;10902;48.158;8.634;2022-10-16T13:53:43;4.63;;;1.27;;
21480;SDS011;10902;48.158;8.634;2022-10-16T13:56:12;3.63;;;1.30;;
21480;SDS011;10902;48.158;8.634;2022-10-16T13:58:42;2.85;;;0.98;;
21480;SDS011;10902;48.158;8.634;2022-10-16T14:01:16;2.97;;;1.00;;
21480;SDS011;10902;48.158;8.634;2022-10-16T14:03:45;4.72;;;1.10;;
21480;SDS011;10902;48.158;8.634;2022-10-16T14:06:13;3.90;;;1.33;;
21480;SDS011;10902;48.158;8.634;2022-10-16T14:08:43;3.33;;;1.08;;
21480;SDS011;10902;48.158;8.634;2022-10-16T14:11:13;4.85;;;1.23;;
21480;SDS011;10902;48.158;8.634;2022-10-16T14:13:48;4.65;;;1.35;;
21480;SDS011;10902;48.158;8.634;2022-10-16T14:16:26;4.28;;;1.00;;
21480;SDS011;10902;48.158;8.634;2022-10-16T14:19:01;4.00;;;1.17;;
21480;SDS011;10902;48.158;8.634;2022-10-16T14:21:31;9.57;;;1.40;;
21480;SDS011;10902;48.158;8.634;2022-10-16T14:23:57;3.83;;;1.17;;
21480;SDS011;10902;48.158;8.634;2022-10-16T14:26:24;5.07;;;1.27;;
21480;SDS011;10902;48.158;8.634;2022-10-16T14:29:10;3.80;;;1.10;;
21480;SDS011;10902;48.158;8.634;2022-10-16T14:31:42;4.20;;;1.10;;
21480;SDS011;10902;48.158;8.634;2022-10-16T14:36:58;5.38;;;1.42;;
21480;SDS011;10902;48.158;8.634;2022-10-16T14:39:32;4.60;;;1.27;;
21480;SDS011;10902;48.158;8.634;2022-10-16T14:41:58;7.28;;;1.30;;
21480;SDS011;10902;48.158;8.634;2022-10-16T14:44:33;3.95;;;1.20;;
21480;SDS011;10902;48.158;8.634;2022-10-16T14:47:06;5.50;;;1.20;;
21480;SDS011;10902;48.158;8.634;2022-10-16T14:49:41;3.80;;;1.00;;
21480;SDS011;10902;48.158;8.634;2022-10-16T14:52:11;5.25;;;1.20;;
21480;SDS011;10902;48.158;8.634;2022-10-16T14:54:37;7.53;;;1.15;;
21480;SDS011;10902;48.158;8.634;2022-10-16T14:57:03;4.30;;;1.30;;
21480;SDS011;10902;48.158;8.634;2022-10-16T14:59:32;5.22;;;1.35;;
21480;SDS011;10902;48.158;8.634;2022-10-16T15:02:18;3.85;;;1.30;;
21480;SDS011;10902;48.158;8.634;2022-10-16T15:04:45;4.32;;;1.10;;
21480;SDS011;10902;48.158;8.634;2022-10-16T15:07:12;5.05;;;1.23;;
21480;SDS011;10902;48.158;8.634;2022-10-16T15:09:37;4.70;;;1.60;;
21480;SDS011;10902;48.158;8.634;2022-10-16T15:12:03;5.55;;;1.02;;
21480;SDS011;10902;48.158;8.634;2022-10-16T15:14:28;3.65;;;1.23;;
21480;SDS011;10902;48.158;8.634;2022-10-16T15:16:54;3.13;;;1.00;;
21480;SDS011;10902;48.158;8.634;2022-10-16T15:19:19;3.22;;;1.05;;
21480;SDS011;10902;48.158;8.634;2022-10-16T15:21:45;4.50;;;1.00;;
21480;SDS011;10902;48.158;8.634;2022-10-16T15:24:11;4.60;;;1.27;;
21480;SDS011;10902;48.158;8.634;2022-10-16T15:26:38;4.68;;;1.23;;
21480;SDS011;10902;48.158;8.634;2022-10-16T15:29:04;4.18;;;1.10;;
21480;SDS011;10902;48.158;8.634;2022-10-16T15:31:30;4.40;;;1.00;;
21480;SDS011;10902;48.158;8.634;2022-10-16T15:33:56;4.63;;;0.98;;
21480;SDS011;10902;48.158;8.634;2022-10-16T15:36:29;4.47;;;1.27;;
21480;SDS011;10902;48.158;8.634;2022-10-16T15:39:02;3.85;;;1.00;;
21480;SDS011;10902;48.158;8.634;2022-10-16T15:41:28;7.53;;;1.10;;
21480;SDS011;10902;48.158;8.634;2022-10-16T15:43:53;3.60;;;1.20;;
21480;SDS011;10902;48.158;8.634;2022-10-16T15:46:20;5.50;;;1.23;;
21480;SDS011;10902;48.158;8.634;2022-10-16T15:48:47;3.05;;;0.90;;
21480;SDS011;10902;48.158;8.634;2022-10-16T15:51:14;4.25;;;0.93;;
21480;SDS011;10902;48.158;8.634;2022-10-16T15:53:41;3.70;;;0.90;;
21480;SDS011;10902;48.158;8.634;2022-10-16T15:56:07;4.57;;;1.30;;
21480;SDS011;10902;48.158;8.634;2022-10-16T15:58:34;5.78;;;1.63;;
21480;SDS011;10902;48.158;8.634;2022-10-16T16:01:00;4.18;;;1.05;;
21480;SDS011;10902;48.158;8.634;2022-10-16T16:03:27;4.80;;;1.00;;
21480;SDS011;10902;48.158;8.634;2022-10-16T16:05:53;3.97;;;1.10;;
21480;SDS011;10902;48.158;8.634;2022-10-16T16:08:19;4.30;;;1.40;;
21480;SDS011;10902;48.158;8.634;2022-10-16T16:10:45;5.65;;;1.70;;
21480;SDS011;10902;48.158;8.634;2022-10-16T16:13:21;5.80;;;2.50;;
21480;SDS011;10902;48.158;8.634;2022-10-16T16:15:47;7.60;;;2.58;;
21480;SDS011;10902;48.158;8.634;2022-10-16T16:18:12;7.18;;;2.00;;
21480;SDS011;10902;48.158;8.634;2022-10-16T16:20:38;5.78;;;1.50;;
21480;SDS011;10902;48.158;8.634;2022-10-16T16:23:03;3.95;;;1.08;;
21480;SDS011;10902;48.158;8.634;2022-10-16T16:25:29;3.60;;;1.17;;
21480;SDS011;10902;48.158;8.634;2022-10-16T16:27:54;3.42;;;0.80;;
21480;SDS011;10902;48.158;8.634;2022-10-16T16:30:20;6.05;;;1.05;;
21480;SDS011;10902;48.158;8.634;2022-10-16T16:32:46;2.92;;;0.98;;
21480;SDS011;10902;48.158;8.634;2022-10-16T16:35:11;3.95;;;1.10;;
21480;SDS011;10902;48.158;8.634;2022-10-16T16:37:37;4.30;;;0.98;;
21480;SDS011;10902;48.158;8.634;2022-10-16T16:40:02;4.25;;;1.60;;
21480;SDS011;10902;48.158;8.634;2022-10-16T16:42:28;4.70;;;2.00;;
21480;SDS011;10902;48.158;8.634;2022-10-16T16:44:54;7.55;;;2.50;;
21480;SDS011;10902;48.158;8.634;2022-10-16T16:47:19;8.85;;;2.83;;
21480;SDS011;10902;48.158;8.634;2022-10-16T16:49:45;4.68;;;2.00;;
21480;SDS011;10902;48.158;8.634;2022-10-16T16:52:14;4.57;;;1.48;;
21480;SDS011;10902;48.158;8.634;2022-10-16T16:54:40;4.78;;;1.52;;
21480;SDS011;10902;48.158;8.634;2022-10-16T16:57:05;5.55;;;1.70;;
21480;SDS011;10902;48.158;8.634;2022-10-16T16:59:31;5.85;;;2.13;;